Time;durP1;ratioP1;P1;durP2;ratioP2;P2;SDS_P1;SDS_P2;PMS_P1;PMS_P2;Temp;Humidity;BMP_temperature;BMP_pressure;BME280_temperature;BME280_humidity;BME280_pressure;Samples;Min_cycle;Max_cycle;Signal;HPM_P1;HPM_P2
2022/05/20 00:01:41;;;;;;;22.15;18.67;;;18.80;98.80;;;;;;5059867;28;20223;-34
2022/05/20 00:04:08;;;;;;;19.25;16.67;;;18.80;98.90;;;;;;5037793;28;20714;-33
2022/05/20 00:06:36;;;;;;;21.08;17.48;;;18.80;98.90;;;;;;5033038;28;20213;-34
2022/05/20 00:09:06;;;;;;;22.75;18.92;;;18.80;98.90;;;;;;5028750;28;20208;-35
2022/05/20 00:11:33;;;;;;;19.23;17.20;;;18.80;98.90;;;;;;5047874;28;20602;-33
2022/05/20 00:14:05;;;;;;;23.92;18.65;;;18.80;99.00;;;;;;5042442;28;20222;-35
2022/05/20 00:16:38;;;;;;;21.50;18.85;;;18.80;99.00;;;;;;5042769;28;20258;-35
2022/05/20 00:19:07;;;;;;;19.35;16.90;;;18.80;99.00;;;;;;5061514;28;20220;-34
2022/05/20 00:21:43;;;;;;;22.83;18.90;;;18.80;99.10;;;;;;5036555;28;20411;-35
2022/05/20 00:24:17;;;;;;;22.23;18.13;;;18.80;99.10;;;;;;5052271;28;20192;-35
2022/05/20 00:26:45;;;;;;;21.88;19.40;;;18.80;99.10;;;;;;5043121;28;20266;-35
2022/05/20 00:29:12;;;;;;;21.25;19.00;;;18.80;99.10;;;;;;5034023;28;20206;-35
2022/05/20 00:31:40;;;;;;;21.02;18.17;;;18.80;99.20;;;;;;5045119;28;20211;-36
2022/05/20 00:34:07;;;;;;;28.60;21.52;;;18.80;99.20;;;;;;5047096;28;20219;-36
2022/05/20 00:36:37;;;;;;;25.35;20.60;;;18.80;99.20;;;;;;5047428;28;20216;-36
2022/05/20 00:39:11;;;;;;;22.85;18.48;;;18.80;99.20;;;;;;5065074;28;20286;-36
2022/05/20 00:41:39;;;;;;;23.55;19.80;;;18.80;99.30;;;;;;5035119;28;20286;-36
2022/05/20 00:44:09;;;;;;;22.35;19.85;;;18.70;99.20;;;;;;5066957;28;20215;-36
2022/05/20 00:46:39;;;;;;;24.08;19.08;;;18.70;99.30;;;;;;5045360;28;20227;-36
2022/05/20 00:49:10;;;;;;;21.20;18.90;;;18.70;99.20;;;;;;5044660;28;20273;-35
2022/05/20 00:51:53;;;;;;;25.63;19.60;;;18.70;99.40;;;;;;5030865;28;20212;-34
2022/05/20 00:54:28;;;;;;;24.27;20.98;;;18.70;99.40;;;;;;5060010;28;20231;-35
2022/05/20 00:57:10;;;;;;;23.45;20.27;;;18.60;99.30;;;;;;5043121;28;20675;-34
2022/05/20 00:59:48;;;;;;;23.33;19.80;;;18.60;99.40;;;;;;5032505;28;20188;-35
2022/05/20 01:02:19;;;;;;;23.77;19.83;;;18.60;99.40;;;;;;5027963;28;20211;-35
2022/05/20 01:04:59;;;;;;;21.58;18.75;;;18.60;99.50;;;;;;5041378;28;20204;-35
2022/05/20 01:07:28;;;;;;;23.55;20.33;;;18.60;99.30;;;;;;5032645;28;20204;-34
2022/05/20 01:09:57;;;;;;;22.50;20.00;;;18.60;99.30;;;;;;5033707;28;20935;-33
2022/05/20 01:12:24;;;;;;;23.05;20.58;;;18.50;99.30;;;;;;5038766;28;20219;-33
2022/05/20 01:14:57;;;;;;;22.83;20.42;;;18.50;99.30;;;;;;5052322;28;20231;-33
2022/05/20 01:17:24;;;;;;;23.88;21.33;;;18.50;99.40;;;;;;5056797;28;20663;-33
2022/05/20 01:19:56;;;;;;;23.83;21.15;;;18.50;99.40;;;;;;5053570;28;20640;-33
2022/05/20 01:22:34;;;;;;;25.85;22.05;;;18.50;99.50;;;;;;5048667;28;20195;-33
2022/05/20 01:25:03;;;;;;;25.63;22.95;;;18.50;99.40;;;;;;5036157;28;20219;-33
2022/05/20 01:27:30;;;;;;;25.35;21.23;;;18.40;99.40;;;;;;5044093;28;20197;-33
2022/05/20 01:29:58;;;;;;;22.88;20.40;;;18.40;99.40;;;;;;5046433;28;20584;-34
2022/05/20 01:32:25;;;;;;;25.25;22.10;;;18.40;99.40;;;;;;5045811;28;20203;-33
2022/05/20 01:34:53;;;;;;;26.85;22.15;;;18.40;99.50;;;;;;5039202;28;20322;-33
2022/05/20 01:37:20;;;;;;;25.48;22.48;;;18.40;99.50;;;;;;5035934;28;20623;-34
2022/05/20 01:39:47;;;;;;;24.60;21.58;;;18.40;99.60;;;;;;5049585;28;20295;-34
2022/05/20 01:42:23;;;;;;;26.08;22.50;;;18.40;99.50;;;;;;5042085;28;20189;-34
2022/05/20 01:45:05;;;;;;;26.00;23.20;;;18.40;99.70;;;;;;5043580;28;20224;-34
2022/05/20 01:47:53;;;;;;;25.63;22.08;;;18.40;99.80;;;;;;5032836;28;20189;-34
2022/05/20 01:50:31;;;;;;;25.08;21.52;;;18.40;99.80;;;;;;5059915;28;20219;-35
2022/05/20 01:53:01;;;;;;;25.55;22.58;;;18.40;99.70;;;;;;5042576;28;20291;-35
2022/05/20 01:55:54;;;;;;;27.13;22.60;;;18.40;99.60;;;;;;5050736;28;20280;-35
2022/05/20 01:58:39;;;;;;;25.90;22.75;;;18.40;99.80;;;;;;5041411;28;20239;-34
2022/05/20 02:01:17;;;;;;;26.23;22.02;;;18.30;99.80;;;;;;5061580;28;20197;-35
2022/05/20 02:03:51;;;;;;;25.17;22.27;;;18.30;99.70;;;;;;5062804;28;20204;-35
2022/05/20 02:06:36;;;;;;;26.73;23.60;;;18.30;99.70;;;;;;5059673;28;20201;-35
2022/05/20 02:09:14;;;;;;;24.63;21.95;;;18.30;99.80;;;;;;5043559;28;20204;-35
2022/05/20 02:12:02;;;;;;;25.05;22.35;;;18.30;99.80;;;;;;5055374;28;20203;-34
2022/05/20 02:14:37;;;;;;;26.52;22.02;;;18.30;99.90;;;;;;5032621;28;20225;-34
2022/05/20 02:17:21;;;;;;;26.75;23.15;;;18.20;99.70;;;;;;5039675;28;20605;-33
2022/05/20 02:19:53;;;;;;;24.20;21.60;;;18.20;99.70;;;;;;5061934;28;20290;-34
2022/05/20 02:22:26;;;;;;;27.00;23.65;;;18.20;99.80;;;;;;5056608;28;20197;-34
2022/05/20 02:24:55;;;;;;;24.55;22.02;;;18.20;99.80;;;;;;5038884;28;20203;-34
2022/05/20 02:27:29;;;;;;;26.00;21.63;;;18.20;99.80;;;;;;5053143;28;20626;-33
2022/05/20 02:30:08;;;;;;;25.45;21.90;;;18.20;99.80;;;;;;5040124;28;20212;-34
2022/05/20 02:32:52;;;;;;;25.33;22.60;;;18.20;99.90;;;;;;5056509;28;20245;-33
2022/05/20 02:35:22;;;;;;;25.35;22.63;;;18.20;99.90;;;;;;5052583;28;20223;-33
2022/05/20 02:38:07;;;;;;;26.17;21.38;;;18.20;99.80;;;;;;5044313;28;20199;-34
2022/05/20 02:40:37;;;;;;;27.13;23.27;;;18.20;99.90;;;;;;5050031;28;20201;-34
2022/05/20 02:43:07;;;;;;;28.42;23.23;;;18.20;99.80;;;;;;5037347;28;20661;-33
2022/05/20 02:45:37;;;;;;;27.27;22.58;;;18.10;99.80;;;;;;5033494;28;20200;-33
2022/05/20 02:48:09;;;;;;;27.35;23.95;;;18.10;99.90;;;;;;5039623;28;20632;-34
2022/05/20 02:50:39;;;;;;;29.25;23.67;;;18.10;99.90;;;;;;5035676;28;20207;-33
2022/05/20 02:53:07;;;;;;;27.55;24.08;;;18.10;99.90;;;;;;5050868;28;20480;-33
2022/05/20 02:55:35;;;;;;;27.85;23.63;;;18.10;99.90;;;;;;5067047;28;20337;-34
2022/05/20 02:58:04;;;;;;;26.25;23.02;;;18.10;99.90;;;;;;5061461;28;20203;-34
2022/05/20 03:06:10;;;;;;;26.40;22.65;;;18.00;99.90;;;;;;5058721;28;20271;-34
2022/05/20 03:08:39;;;;;;;26.92;23.63;;;18.00;99.90;;;;;;5057075;28;20219;-35
2022/05/20 03:11:06;;;;;;;27.00;22.70;;;18.00;99.90;;;;;;5053737;28;20203;-35
2022/05/20 03:13:33;;;;;;;26.95;22.27;;;18.00;99.90;;;;;;5056072;28;20647;-35
2022/05/20 03:16:03;;;;;;;29.17;23.63;;;18.00;99.90;;;;;;5046834;28;20217;-35
2022/05/20 03:18:30;;;;;;;29.65;23.55;;;18.00;99.90;;;;;;5038786;28;21487;-35
2022/05/20 03:21:00;;;;;;;30.00;25.00;;;18.00;99.90;;;;;;5038308;28;20200;-35
2022/05/20 03:23:27;;;;;;;30.35;25.48;;;18.00;99.90;;;;;;5062818;28;20859;-35
2022/05/20 03:25:54;;;;;;;27.10;24.02;;;18.00;99.90;;;;;;5028054;28;20232;-35
2022/05/20 03:28:21;;;;;;;28.83;24.15;;;18.00;99.90;;;;;;5043932;28;20196;-35
2022/05/20 03:30:49;;;;;;;26.90;22.65;;;18.00;99.90;;;;;;5046736;28;20198;-36
2022/05/20 03:33:16;;;;;;;28.75;24.42;;;18.00;99.90;;;;;;5042083;28;20299;-34
2022/05/20 03:35:43;;;;;;;30.52;23.63;;;18.00;99.90;;;;;;5062222;28;20604;-34
2022/05/20 03:38:11;;;;;;;27.00;23.77;;;18.00;99.90;;;;;;5040053;28;20693;-34
2022/05/20 03:40:40;;;;;;;26.95;24.00;;;18.00;99.90;;;;;;5035214;28;20271;-34
2022/05/20 03:43:09;;;;;;;27.98;24.05;;;18.00;99.90;;;;;;5046464;28;20207;-35
2022/05/20 03:45:42;;;;;;;27.58;23.77;;;17.90;99.90;;;;;;5044075;28;20212;-36
2022/05/20 03:48:10;;;;;;;28.23;25.27;;;17.90;99.90;;;;;;5033902;28;20203;-35
2022/05/20 03:50:37;;;;;;;28.38;23.67;;;17.90;99.90;;;;;;5053134;28;20215;-36
2022/05/20 03:53:04;;;;;;;26.60;23.40;;;17.90;99.90;;;;;;5057677;28;20548;-35
2022/05/20 03:55:34;;;;;;;27.75;24.33;;;17.90;99.90;;;;;;5038631;28;20230;-35
2022/05/20 03:58:01;;;;;;;28.88;23.48;;;17.90;99.90;;;;;;5057015;28;20238;-35
2022/05/20 04:00:28;;;;;;;26.45;23.58;;;17.90;99.90;;;;;;5065160;28;20203;-35
2022/05/20 04:02:55;;;;;;;27.38;24.48;;;17.90;99.90;;;;;;5055044;28;20196;-35
2022/05/20 04:05:25;;;;;;;28.13;23.92;;;17.90;99.90;;;;;;5063009;28;20252;-35
2022/05/20 04:07:52;;;;;;;29.42;24.90;;;17.90;99.90;;;;;;5057245;28;20219;-35
2022/05/20 04:10:20;;;;;;;27.83;23.48;;;17.90;99.90;;;;;;5056953;28;20231;-35
2022/05/20 04:12:47;;;;;;;28.15;24.52;;;18.00;99.90;;;;;;5049686;28;20209;-35
2022/05/20 04:15:15;;;;;;;30.13;25.02;;;18.00;99.90;;;;;;5054447;28;20604;-35
2022/05/20 04:17:42;;;;;;;28.50;25.42;;;18.00;99.90;;;;;;5052274;28;20227;-36
2022/05/20 04:20:10;;;;;;;26.98;23.60;;;18.00;99.90;;;;;;5050786;28;20262;-36
2022/05/20 04:22:39;;;;;;;28.65;24.73;;;18.00;99.90;;;;;;5053158;28;20210;-36
2022/05/20 04:25:07;;;;;;;28.90;25.05;;;18.00;99.90;;;;;;5048694;28;20249;-35
2022/05/20 04:27:34;;;;;;;28.50;23.40;;;18.00;99.90;;;;;;5060524;28;20206;-36
2022/05/20 04:30:06;;;;;;;25.75;22.77;;;18.10;99.90;;;;;;5040689;28;20200;-35
2022/05/20 04:32:33;;;;;;;27.73;23.52;;;18.10;99.90;;;;;;5041792;28;20207;-36
2022/05/20 04:35:08;;;;;;;27.98;24.30;;;18.10;99.90;;;;;;5052336;28;20237;-36
2022/05/20 04:37:38;;;;;;;27.33;24.27;;;18.10;99.90;;;;;;5073273;28;20326;-35
2022/05/20 04:40:06;;;;;;;26.98;23.50;;;18.20;99.90;;;;;;5035721;28;20691;-35
2022/05/20 04:48:12;;;;;;;27.48;24.33;;;18.20;99.90;;;;;;5052005;28;20216;-35
2022/05/20 04:50:41;;;;;;;28.05;23.67;;;18.30;99.90;;;;;;5038605;28;20212;-35
2022/05/20 04:53:08;;;;;;;28.30;23.75;;;18.20;99.90;;;;;;5045214;28;20310;-35
2022/05/20 04:55:37;;;;;;;25.80;23.15;;;18.30;99.90;;;;;;5040094;28;20268;-36
2022/05/20 04:58:05;;;;;;;25.70;22.92;;;18.30;99.90;;;;;;5056999;28;20195;-35
2022/05/20 05:00:33;;;;;;;31.25;23.75;;;18.30;99.90;;;;;;5043174;28;20715;-34
2022/05/20 05:03:02;;;;;;;30.70;23.77;;;18.40;99.90;;;;;;5044710;28;20200;-35
2022/05/20 05:05:30;;;;;;;27.33;23.70;;;18.40;99.90;;;;;;5045914;28;20626;-34
2022/05/20 05:07:58;;;;;;;27.67;22.98;;;18.40;99.90;;;;;;5055661;28;20311;-34
2022/05/20 05:10:30;;;;;;;29.85;24.88;;;18.40;99.90;;;;;;5042853;28;20204;-34
2022/05/20 05:12:58;;;;;;;28.50;24.42;;;18.50;99.90;;;;;;5046117;28;20211;-34
2022/05/20 05:15:26;;;;;;;27.55;24.45;;;18.50;99.90;;;;;;5042763;28;20227;-34
2022/05/20 05:18:11;;;;;;;28.08;24.83;;;18.50;99.90;;;;;;5048429;28;20681;-34
2022/05/20 05:20:46;;;;;;;33.40;25.15;;;18.60;99.90;;;;;;5047132;28;20732;-34
2022/05/20 05:23:15;;;;;;;30.70;24.05;;;18.60;99.90;;;;;;5042698;28;20213;-34
2022/05/20 05:25:48;;;;;;;29.63;25.38;;;18.60;99.90;;;;;;5051801;28;20713;-34
2022/05/20 05:28:21;;;;;;;29.05;24.38;;;18.60;99.90;;;;;;5040147;28;20354;-34
2022/05/20 05:30:51;;;;;;;29.00;24.30;;;18.70;99.90;;;;;;5036977;28;20561;-34
2022/05/20 05:33:21;;;;;;;27.67;24.67;;;18.80;99.90;;;;;;5057727;28;20231;-34
2022/05/20 05:35:48;;;;;;;33.58;26.10;;;18.80;99.90;;;;;;5055728;28;20809;-34
2022/05/20 05:38:24;;;;;;;29.80;25.45;;;18.80;99.90;;;;;;5042324;28;20192;-34
2022/05/20 05:40:52;;;;;;;31.38;24.98;;;18.90;99.90;;;;;;5040931;28;20199;-34
2022/05/20 05:43:22;;;;;;;30.02;24.42;;;19.00;99.90;;;;;;5044718;28;20213;-34
2022/05/20 05:45:49;;;;;;;29.42;23.80;;;19.00;99.90;;;;;;5037457;28;20200;-34
2022/05/20 05:48:17;;;;;;;29.55;24.60;;;19.10;99.90;;;;;;5044303;28;20216;-34
2022/05/20 05:50:47;;;;;;;27.60;24.70;;;19.20;99.90;;;;;;5045087;28;20235;-34
2022/05/20 05:53:22;;;;;;;28.00;24.60;;;19.30;99.90;;;;;;5048693;28;20267;-34
2022/05/20 05:56:00;;;;;;;29.98;25.13;;;19.30;99.90;;;;;;5037706;28;20242;-35
2022/05/20 05:58:30;;;;;;;34.10;25.35;;;19.30;99.90;;;;;;5037822;28;20216;-35
2022/05/20 06:01:01;;;;;;;33.70;27.13;;;19.40;99.90;;;;;;5022183;28;20221;-35
2022/05/20 06:03:33;;;;;;;31.75;25.85;;;19.50;99.90;;;;;;5056437;28;20574;-35
2022/05/20 06:06:05;;;;;;;32.50;26.38;;;19.50;99.90;;;;;;5051919;28;20219;-35
2022/05/20 06:08:32;;;;;;;31.88;26.67;;;19.60;99.90;;;;;;5033124;28;20211;-35
2022/05/20 06:11:00;;;;;;;31.98;25.65;;;19.60;99.90;;;;;;5034674;28;20621;-35
2022/05/20 06:13:30;;;;;;;35.50;27.45;;;19.60;99.90;;;;;;5049924;28;20208;-35
2022/05/20 06:15:57;;;;;;;30.77;25.95;;;19.70;99.90;;;;;;5063266;28;20311;-35
2022/05/20 06:18:26;;;;;;;33.53;27.85;;;19.80;99.90;;;;;;5056801;28;20283;-35
2022/05/20 06:20:56;;;;;;;37.05;27.52;;;19.80;99.90;;;;;;5065211;28;20246;-35
2022/05/20 06:23:24;;;;;;;35.38;28.95;;;19.90;99.90;;;;;;5051714;28;20200;-35
2022/05/20 06:25:51;;;;;;;36.65;28.38;;;19.90;99.90;;;;;;5060904;28;20329;-35
2022/05/20 06:28:38;;;;;;;33.67;29.05;;;19.90;99.90;;;;;;5027830;28;20225;-36
2022/05/20 06:31:06;;;;;;;32.65;26.90;;;19.90;99.90;;;;;;5048168;28;20272;-36
2022/05/20 06:33:36;;;;;;;35.60;27.38;;;19.90;99.90;;;;;;5038555;28;20220;-36
2022/05/20 06:41:36;;;;;;;35.60;26.85;;;20.00;99.90;;;;;;5038789;28;20297;-34
2022/05/20 06:44:03;;;;;;;33.90;26.75;;;20.10;99.90;;;;;;5031819;28;20212;-34
2022/05/20 06:46:33;;;;;;;28.48;24.17;;;20.20;99.90;;;;;;5042820;28;20609;-34
2022/05/20 06:49:02;;;;;;;29.00;24.20;;;20.20;99.90;;;;;;5035489;28;20294;-34
2022/05/20 06:51:36;;;;;;;27.73;23.85;;;20.30;99.90;;;;;;5049015;28;20212;-34
2022/05/20 06:54:07;;;;;;;30.10;25.33;;;20.40;99.90;;;;;;5049390;28;20445;-35
2022/05/20 06:56:36;;;;;;;31.95;26.08;;;20.50;99.90;;;;;;5060089;28;20246;-34
2022/05/20 06:59:09;;;;;;;33.08;26.25;;;20.60;99.90;;;;;;5028511;28;20283;-34
2022/05/20 07:01:39;;;;;;;30.90;25.30;;;20.70;99.90;;;;;;5032364;28;20204;-34
2022/05/20 07:04:30;;;;;;;31.77;25.27;;;20.80;99.90;;;;;;5031284;28;20250;-34
2022/05/20 07:06:58;;;;;;;32.55;26.33;;;20.90;99.90;;;;;;5067781;28;20226;-34
2022/05/20 07:09:27;;;;;;;29.10;23.58;;;20.90;99.90;;;;;;5049669;28;20200;-34
2022/05/20 07:11:55;;;;;;;34.20;28.02;;;21.00;99.90;;;;;;5029795;28;20734;-34
2022/05/20 07:14:25;;;;;;;32.50;27.08;;;21.00;99.90;;;;;;5039988;28;20299;-34
2022/05/20 07:16:52;;;;;;;33.72;26.67;;;21.10;99.90;;;;;;5063067;28;20677;-34
2022/05/20 07:19:22;;;;;;;31.15;26.90;;;21.10;99.90;;;;;;5032260;28;20212;-34
2022/05/20 07:21:49;;;;;;;31.40;25.98;;;21.20;99.90;;;;;;5039052;28;20222;-34
2022/05/20 07:24:17;;;;;;;30.08;26.17;;;21.20;99.90;;;;;;5066944;28;20230;-34
2022/05/20 07:26:46;;;;;;;30.95;26.27;;;21.30;99.90;;;;;;5053804;28;20707;-34
2022/05/20 07:29:14;;;;;;;29.70;24.95;;;21.30;99.90;;;;;;5047429;28;20216;-34
2022/05/20 07:31:41;;;;;;;31.15;26.88;;;21.40;99.90;;;;;;5050631;28;20302;-34
2022/05/20 07:34:12;;;;;;;29.15;24.17;;;21.40;99.90;;;;;;5051346;28;20851;-34
2022/05/20 07:36:41;;;;;;;26.92;23.50;;;21.50;99.90;;;;;;5044274;28;20320;-34
2022/05/20 07:39:09;;;;;;;32.22;24.70;;;21.50;99.90;;;;;;5044156;28;20692;-35
2022/05/20 07:41:38;;;;;;;36.38;30.33;;;21.60;99.90;;;;;;5049930;28;20202;-35
2022/05/20 07:44:06;;;;;;;35.95;28.05;;;21.70;99.90;;;;;;5054455;28;20370;-34
2022/05/20 07:46:33;;;;;;;31.45;25.75;;;21.70;99.90;;;;;;5043897;28;20208;-35
2022/05/20 07:49:00;;;;;;;31.88;25.10;;;21.70;99.90;;;;;;5055704;28;20216;-35
2022/05/20 07:51:30;;;;;;;34.55;26.38;;;21.80;99.90;;;;;;5064308;28;20204;-34
2022/05/20 07:54:08;;;;;;;33.47;27.05;;;21.80;99.90;;;;;;5027653;28;20759;-35
2022/05/20 07:56:39;;;;;;;36.50;29.30;;;21.90;99.90;;;;;;5052959;28;20763;-35
2022/05/20 07:59:12;;;;;;;36.20;28.58;;;21.90;99.90;;;;;;5052248;28;20204;-35
2022/05/20 08:01:42;;;;;;;33.67;25.35;;;21.90;99.90;;;;;;5045595;28;20677;-35
2022/05/20 08:07:14;;;;;;;35.42;29.38;;;22.00;99.90;;;;;;5064482;28;20206;-35
2022/05/20 08:09:42;;;;;;;32.53;27.48;;;22.10;99.90;;;;;;5049850;28;20209;-35
2022/05/20 08:12:12;;;;;;;27.58;24.55;;;22.10;99.90;;;;;;5043671;28;20290;-35
2022/05/20 08:14:49;;;;;;;36.30;30.38;;;22.10;99.90;;;;;;5040221;28;20208;-35
2022/05/20 08:17:24;;;;;;;30.85;26.90;;;22.20;99.90;;;;;;5062793;28;20616;-35
2022/05/20 08:19:53;;;;;;;30.48;27.15;;;22.30;99.90;;;;;;5060837;28;20260;-35
2022/05/20 08:22:22;;;;;;;29.50;25.60;;;22.40;99.90;;;;;;5048482;28;20612;-35
2022/05/20 08:24:53;;;;;;;33.50;26.23;;;22.40;99.90;;;;;;5047081;28;20192;-35
2022/05/20 08:27:25;;;;;;;29.75;26.23;;;22.50;99.90;;;;;;5044215;28;20311;-35
2022/05/20 08:29:56;;;;;;;31.00;27.63;;;22.60;99.90;;;;;;5045612;28;20196;-35
2022/05/20 08:32:23;;;;;;;35.28;29.92;;;22.60;99.90;;;;;;5067313;28;20226;-35
2022/05/20 08:34:53;;;;;;;31.60;26.02;;;22.70;99.90;;;;;;5049179;28;20855;-35
2022/05/20 08:37:23;;;;;;;30.08;24.52;;;22.70;99.90;;;;;;5058667;28;20258;-35
2022/05/20 08:39:50;;;;;;;29.17;25.13;;;22.80;99.90;;;;;;5049576;28;20526;-35
2022/05/20 08:42:29;;;;;;;30.88;26.17;;;22.90;99.90;;;;;;5059014;28;20273;-35
2022/05/20 08:44:57;;;;;;;32.33;27.45;;;23.00;99.90;;;;;;5026633;28;20217;-35
2022/05/20 08:47:46;;;;;;;29.67;25.90;;;23.10;99.90;;;;;;5037594;28;20199;-35
2022/05/20 08:50:20;;;;;;;27.98;24.85;;;23.20;99.90;;;;;;5028187;28;20204;-35
2022/05/20 08:52:51;;;;;;;25.98;23.17;;;23.20;99.90;;;;;;5043547;28;20220;-35
2022/05/20 08:55:24;;;;;;;31.05;25.75;;;23.30;99.90;;;;;;5030191;28;20316;-35
2022/05/20 08:58:03;;;;;;;28.75;24.70;;;23.30;99.90;;;;;;5013702;28;20215;-36
2022/05/20 09:00:33;;;;;;;30.10;24.48;;;23.40;99.90;;;;;;5038124;28;20759;-36
2022/05/20 09:03:06;;;;;;;25.63;21.58;;;23.50;99.90;;;;;;5055791;28;20256;-35
2022/05/20 09:05:36;;;;;;;31.52;27.48;;;23.60;99.90;;;;;;5049563;28;20620;-35
2022/05/20 09:08:24;;;;;;;27.58;24.58;;;23.60;99.90;;;;;;5039049;28;20267;-35
2022/05/20 09:10:57;;;;;;;25.00;22.38;;;23.70;99.90;;;;;;5044763;28;20216;-35
2022/05/20 09:16:26;;;;;;;32.10;24.50;;;23.80;99.90;;;;;;5049839;28;20240;-35
2022/05/20 09:19:07;;;;;;;27.95;24.67;;;23.80;99.90;;;;;;5043687;28;20191;-35
2022/05/20 09:21:43;;;;;;;27.83;24.80;;;23.90;99.90;;;;;;5050222;28;20236;-35
2022/05/20 09:24:20;;;;;;;29.63;25.10;;;23.90;99.90;;;;;;5062116;28;20234;-35
2022/05/20 09:27:15;;;;;;;28.52;24.42;;;23.90;99.90;;;;;;5049390;28;20220;-36
2022/05/20 09:29:53;;;;;;;31.80;26.60;;;23.90;99.90;;;;;;5048923;28;20817;-35
2022/05/20 09:32:40;;;;;;;28.08;24.73;;;24.00;99.90;;;;;;5059190;28;20219;-35
2022/05/20 09:35:19;;;;;;;26.17;23.38;;;24.00;99.90;;;;;;5031099;28;20213;-35
2022/05/20 09:37:49;;;;;;;27.02;23.92;;;24.00;99.90;;;;;;5057748;28;20257;-35
2022/05/20 09:40:32;;;;;;;25.08;22.23;;;24.00;99.90;;;;;;5050096;28;20271;-35
2022/05/20 09:43:28;;;;;;;28.42;21.98;;;24.10;99.90;;;;;;5059804;28;20213;-35
2022/05/20 09:46:03;;;;;;;29.10;23.67;;;24.10;99.90;;;;;;5036324;28;20547;-35
2022/05/20 09:48:55;;;;;;;24.25;21.70;;;24.20;99.90;;;;;;5053984;28;20227;-35
2022/05/20 09:51:38;;;;;;;26.27;21.48;;;24.30;99.90;;;;;;5040309;28;20236;-35
2022/05/20 09:54:09;;;;;;;28.25;22.33;;;24.30;99.90;;;;;;5059484;28;20219;-36
2022/05/20 09:56:41;;;;;;;27.73;24.27;;;24.30;99.90;;;;;;5061376;28;20322;-34
2022/05/20 09:59:14;;;;;;;30.92;24.92;;;24.40;99.90;;;;;;5040388;28;20201;-35
2022/05/20 10:02:17;;;;;;;28.25;23.02;;;24.40;99.90;;;;;;5035276;28;20203;-35
2022/05/20 10:05:23;;;;;;;26.30;22.98;;;24.40;99.90;;;;;;5029910;28;20216;-35
2022/05/20 10:08:01;;;;;;;25.88;23.17;;;24.50;99.90;;;;;;5054984;28;20207;-35
2022/05/20 10:10:34;;;;;;;28.25;24.95;;;24.40;99.90;;;;;;5028034;28;20590;-35
2022/05/20 10:13:05;;;;;;;27.13;23.80;;;24.40;99.90;;;;;;5038132;28;20223;-35
2022/05/20 10:15:40;;;;;;;27.67;23.65;;;24.40;99.90;;;;;;5042339;28;20219;-35
2022/05/20 10:18:30;;;;;;;23.30;20.75;;;24.40;99.90;;;;;;5067438;28;20203;-35
2022/05/20 10:21:07;;;;;;;25.75;23.02;;;24.50;99.90;;;;;;5069111;28;20677;-35
2022/05/20 10:23:54;;;;;;;24.23;21.45;;;24.50;99.90;;;;;;5029009;28;20193;-34
2022/05/20 10:26:47;;;;;;;23.88;21.23;;;24.50;99.90;;;;;;5055788;28;20641;-35
2022/05/20 10:32:47;;;;;;;22.02;19.48;;;24.60;99.90;;;;;;5035897;28;20235;-34
2022/05/20 10:35:18;;;;;;;22.80;19.83;;;24.70;99.90;;;;;;5043018;28;20201;-35
2022/05/20 10:37:51;;;;;;;20.48;18.27;;;24.70;99.90;;;;;;5063897;28;20210;-35
2022/05/20 10:40:27;;;;;;;22.58;18.95;;;24.80;99.90;;;;;;5054010;28;20208;-35
2022/05/20 10:43:24;;;;;;;20.35;17.73;;;24.80;99.90;;;;;;5029186;28;20287;-35
2022/05/20 10:49:06;;;;;;;20.65;18.10;;;24.90;99.90;;;;;;5043951;28;20700;-35
2022/05/20 10:51:36;;;;;;;20.23;17.95;;;25.00;99.90;;;;;;5054801;28;20670;-36
2022/05/20 10:54:33;;;;;;;20.27;17.20;;;25.00;99.90;;;;;;5048548;28;20585;-35
2022/05/20 10:57:09;;;;;;;22.52;18.75;;;25.00;99.90;;;;;;5066982;28;20307;-34
2022/05/20 11:00:06;;;;;;;23.45;19.08;;;25.00;99.90;;;;;;5016373;28;20213;-35
2022/05/20 11:02:47;;;;;;;21.90;19.10;;;25.00;99.90;;;;;;5015037;28;20712;-35
2022/05/20 11:05:28;;;;;;;28.77;21.77;;;25.00;99.90;;;;;;5017488;28;20698;-35
2022/05/20 11:08:02;;;;;;;23.80;21.27;;;25.00;99.90;;;;;;5032865;28;20207;-35
2022/05/20 11:11:11;;;;;;;25.13;21.48;;;24.90;99.90;;;;;;5013022;28;20216;-35
2022/05/20 11:14:13;;;;;;;24.50;21.45;;;24.90;99.90;;;;;;5007315;28;20201;-33
2022/05/20 11:16:42;;;;;;;28.13;21.35;;;24.90;99.90;;;;;;5019691;28;20229;-33
2022/05/20 11:19:30;;;;;;;23.80;20.67;;;24.80;99.90;;;;;;5024952;28;20667;-34
2022/05/20 11:22:05;;;;;;;29.20;21.75;;;24.70;99.90;;;;;;5031158;28;20254;-35
2022/05/20 11:24:53;;;;;;;26.63;23.73;;;24.70;99.90;;;;;;5026143;28;20271;-35
2022/05/20 11:27:26;;;;;;;28.27;23.98;;;24.60;99.90;;;;;;5027715;28;20748;-35
2022/05/20 11:30:01;;;;;;;29.10;23.85;;;24.60;99.90;;;;;;5023681;28;20207;-34
2022/05/20 11:32:58;;;;;;;30.00;25.25;;;24.50;99.90;;;;;;5042410;28;20210;-35
2022/05/20 11:35:25;;;;;;;31.42;26.20;;;24.50;99.90;;;;;;5007327;28;20210;-35
2022/05/20 11:38:30;;;;;;;29.25;25.05;;;24.50;99.90;;;;;;5014034;28;20205;-36
2022/05/20 11:41:28;;;;;;;30.42;24.60;;;24.40;99.90;;;;;;5021238;28;20202;-35
2022/05/20 11:44:10;;;;;;;27.38;24.05;;;24.30;99.90;;;;;;5015412;28;20216;-35
2022/05/20 11:46:56;;;;;;;23.63;20.77;;;24.20;99.90;;;;;;5027971;28;20197;-35
2022/05/20 11:49:51;;;;;;;25.95;22.15;;;24.20;99.90;;;;;;5032125;28;20709;-34
2022/05/20 11:52:47;;;;;;;23.08;16.90;;;24.10;99.90;;;;;;5010148;28;20244;-34
2022/05/20 11:55:21;;;;;;;14.00;10.70;;;24.00;99.90;;;;;;5025159;28;20239;-35
2022/05/20 11:57:53;;;;;;;9.15;8.07;;;24.00;99.90;;;;;;5047349;28;20317;-35
2022/05/20 12:00:21;;;;;;;9.88;6.15;;;23.90;99.90;;;;;;5060216;28;20229;-35
2022/05/20 12:02:56;;;;;;;7.30;5.18;;;23.80;99.90;;;;;;5065606;28;20670;-35
2022/05/20 12:05:27;;;;;;;5.93;4.53;;;23.80;99.90;;;;;;5054791;28;20203;-34
2022/05/20 12:07:57;;;;;;;5.28;4.15;;;23.70;99.90;;;;;;5044997;28;20678;-35
2022/05/20 12:10:30;;;;;;;4.68;3.20;;;23.70;99.90;;;;;;5040943;28;20330;-35
2022/05/20 12:13:24;;;;;;;4.00;2.53;;;23.70;99.90;;;;;;5041512;28;20562;-35
2022/05/20 12:16:13;;;;;;;3.40;2.40;;;23.70;99.90;;;;;;5066264;28;20207;-35
2022/05/20 12:24:49;;;;;;;2.08;1.30;;;23.60;99.90;;;;;;5034930;28;20219;-35
2022/05/20 12:27:25;;;;;;;2.40;1.10;;;23.50;99.90;;;;;;5039995;28;20220;-35
2022/05/20 12:30:17;;;;;;;1.13;0.80;;;23.60;99.90;;;;;;5042467;28;20203;-35
2022/05/20 12:32:47;;;;;;;2.83;0.90;;;23.60;99.90;;;;;;5040834;28;20212;-35
2022/05/20 12:35:46;;;;;;;2.95;1.20;;;23.60;99.90;;;;;;5035330;28;20242;-36
2022/05/20 12:38:24;;;;;;;1.30;0.82;;;23.70;99.90;;;;;;5031940;28;20361;-36
2022/05/20 12:40:57;;;;;;;5.38;1.23;;;23.70;99.90;;;;;;5030320;28;20542;-35
2022/05/20 12:43:46;;;;;;;0.80;0.80;;;23.70;99.90;;;;;;5032100;28;20269;-35
2022/05/20 12:46:41;;;;;;;1.80;1.00;;;23.80;99.90;;;;;;5037868;28;20696;-35
2022/05/20 12:49:12;;;;;;;2.25;1.10;;;23.80;99.90;;;;;;5029067;28;20228;-35
2022/05/20 12:51:47;;;;;;;1.33;1.05;;;23.80;99.90;;;;;;5028861;28;20205;-35
2022/05/20 12:54:23;;;;;;;2.85;1.15;;;23.80;99.90;;;;;;5031942;28;20700;-35
2022/05/20 12:57:25;;;;;;;3.58;1.20;;;23.90;99.90;;;;;;5035216;28;20240;-35
2022/05/20 12:59:58;;;;;;;1.92;1.00;;;23.90;99.90;;;;;;5036069;28;20203;-35
2022/05/20 13:02:34;;;;;;;3.05;1.30;;;23.90;99.90;;;;;;5030914;28;20299;-35
2022/05/20 13:05:14;;;;;;;2.85;1.23;;;24.00;99.90;;;;;;5047252;28;20208;-36
2022/05/20 13:07:45;;;;;;;4.03;1.48;;;23.90;99.90;;;;;;5050395;28;20204;-36
2022/05/20 13:10:29;;;;;;;3.22;1.30;;;24.00;99.90;;;;;;5030257;28;20213;-35
2022/05/20 13:13:04;;;;;;;3.60;1.75;;;23.90;99.90;;;;;;5029624;28;20232;-35
2022/05/20 13:15:43;;;;;;;5.32;1.90;;;23.90;99.90;;;;;;5035205;28;20271;-34
2022/05/20 13:18:30;;;;;;;3.75;1.90;;;23.80;99.90;;;;;;5042103;28;20678;-35
2022/05/20 13:21:01;;;;;;;4.63;1.80;;;23.80;99.90;;;;;;5043943;28;20215;-35
2022/05/20 13:23:33;;;;;;;3.83;1.88;;;23.70;99.90;;;;;;5033270;28;20197;-36
2022/05/20 13:26:01;;;;;;;5.53;2.15;;;23.70;99.90;;;;;;5040578;28;20673;-35
2022/05/20 13:28:35;;;;;;;4.38;1.70;;;23.70;99.90;;;;;;5030233;28;20700;-35
2022/05/20 13:31:18;;;;;;;4.72;2.30;;;23.60;99.90;;;;;;5042976;28;20251;-39
2022/05/20 13:33:45;;;;;;;5.35;2.33;;;23.60;99.90;;;;;;5032066;28;20663;-35
2022/05/20 13:36:19;;;;;;;3.45;2.00;;;23.60;99.90;;;;;;5027254;28;20216;-35
2022/05/20 13:39:07;;;;;;;3.10;1.98;;;23.50;99.90;;;;;;5031506;28;20201;-34